createdAt,value
2018-12-30T00:00:52.993Z,1017.95
2018-12-30T00:01:52.952Z,1018.00
2018-12-30T00:02:53.003Z,1018.03
2018-12-30T00:03:52.940Z,1018.03
2018-12-30T00:05:52.900Z,1018.12
2018-12-30T00:06:52.930Z,1018.09
2018-12-30T00:07:52.881Z,1018.24
2018-12-30T00:08:54.923Z,1018.18
2018-12-30T00:09:52.885Z,1018.36
2018-12-30T00:10:52.962Z,1018.29
2018-12-30T00:11:52.836Z,1018.27
2018-12-30T00:12:52.878Z,1018.25
2018-12-30T00:13:52.839Z,1018.28
2018-12-30T00:14:52.884Z,1018.35
2018-12-30T00:15:52.805Z,1018.38
2018-12-30T00:16:52.793Z,1018.43
2018-12-30T00:17:52.774Z,1018.44
2018-12-30T00:18:52.839Z,1018.57
2018-12-30T00:19:52.752Z,1018.54
2018-12-30T00:20:52.822Z,1018.46
2018-12-30T00:21:52.759Z,1018.63
2018-12-30T00:22:52.737Z,1018.66
2018-12-30T00:23:52.732Z,1018.69
2018-12-30T00:24:52.747Z,1018.73
2018-12-30T00:25:52.693Z,1018.83
2018-12-30T00:26:52.767Z,1018.85
2018-12-30T00:27:52.662Z,1018.88
2018-12-30T00:28:52.708Z,1018.83
2018-12-30T00:29:52.640Z,1018.86
2018-12-30T00:30:52.686Z,1018.82
2018-12-30T00:31:52.626Z,1018.90
2018-12-30T00:32:52.706Z,1019.10
2018-12-30T00:33:52.628Z,1019.06
2018-12-30T00:34:52.639Z,1019.09
2018-12-30T00:35:52.592Z,1019.20
2018-12-30T00:36:52.652Z,1019.10
2018-12-30T00:37:52.564Z,1019.24
2018-12-30T00:38:52.685Z,1019.24
2018-12-30T00:39:52.545Z,1019.31
2018-12-30T00:40:52.563Z,1019.34
2018-12-30T00:41:52.516Z,1019.34
2018-12-30T00:42:52.599Z,1019.51
2018-12-30T00:43:52.514Z,1019.34
2018-12-30T00:44:52.582Z,1019.46
2018-12-30T00:45:52.468Z,1019.42
2018-12-30T00:46:52.527Z,1019.73
2018-12-30T00:47:52.453Z,1019.36
2018-12-30T00:48:58.024Z,1019.64
2018-12-30T00:49:52.449Z,1019.71
2018-12-30T00:50:53.436Z,1019.74
2018-12-30T00:51:52.403Z,1019.76
2018-12-30T00:52:52.432Z,1019.74
2018-12-30T00:53:52.397Z,1019.83
2018-12-30T00:54:54.433Z,1019.82
2018-12-30T00:55:52.355Z,1019.91
2018-12-30T00:56:53.373Z,1019.88
2018-12-30T00:57:52.342Z,1019.87
2018-12-30T00:58:52.391Z,1019.86
2018-12-30T00:59:52.316Z,1019.95
2018-12-30T01:00:52.379Z,1019.85
2018-12-30T01:01:52.292Z,1019.92
2018-12-30T01:02:52.393Z,1019.85
2018-12-30T01:03:52.291Z,1020.02
2018-12-30T01:04:52.309Z,1020.06
2018-12-30T01:05:52.246Z,1020.04
2018-12-30T01:06:52.317Z,1020.11
2018-12-30T01:07:52.226Z,1020.19
2018-12-30T01:08:52.259Z,1020.16
2018-12-30T01:09:52.217Z,1020.21
2018-12-30T01:10:52.243Z,1020.21
2018-12-30T01:11:52.184Z,1020.22
2018-12-30T01:12:52.258Z,1020.18
2018-12-30T01:13:52.186Z,1020.23
2018-12-30T01:14:52.196Z,1020.27
2018-12-30T01:15:52.173Z,1020.27
2018-12-30T01:16:52.179Z,1020.25
2018-12-30T01:17:52.129Z,1020.31
2018-12-30T01:18:52.199Z,1020.38
2018-12-30T01:19:52.121Z,1020.37
2018-12-30T01:20:52.107Z,1020.46
2018-12-30T01:21:52.082Z,1020.40
2018-12-30T01:22:52.125Z,1020.28
2018-12-30T01:23:52.069Z,1020.36
2018-12-30T01:24:52.250Z,1020.40
2018-12-30T01:25:52.032Z,1020.31
2018-12-30T01:26:52.042Z,1020.42
2018-12-30T01:27:52.014Z,1020.50
2018-12-30T01:28:52.060Z,1020.53
2018-12-30T01:29:52.003Z,1020.59
2018-12-30T01:30:52.070Z,1020.60
2018-12-30T01:31:51.969Z,1020.66
2018-12-30T01:32:52.005Z,1020.68
2018-12-30T01:33:51.967Z,1020.65
2018-12-30T01:34:57.460Z,1020.67
2018-12-30T01:35:51.928Z,1020.65
2018-12-30T01:36:52.933Z,1020.59
2018-12-30T01:37:51.924Z,1020.57
2018-12-30T01:38:51.919Z,1020.63
2018-12-30T01:39:51.896Z,1020.77
2018-12-30T01:40:51.944Z,1020.67
2018-12-30T01:41:51.866Z,1020.65
2018-12-30T01:42:52.877Z,1020.71
2018-12-30T01:43:51.843Z,1020.80
2018-12-30T01:44:51.900Z,1020.86
2018-12-30T01:45:51.817Z,1020.94
2018-12-30T01:46:51.879Z,1020.90
2018-12-30T01:47:51.796Z,1020.96
2018-12-30T01:48:51.892Z,1020.86
2018-12-30T01:49:51.796Z,1020.96
2018-12-30T01:50:51.803Z,1020.95
2018-12-30T01:51:51.769Z,1020.87
2018-12-30T01:52:51.811Z,1020.95
2018-12-30T01:53:51.739Z,1021.01
2018-12-30T01:54:51.761Z,1020.99
2018-12-30T01:55:51.707Z,1021.07
2018-12-30T01:56:51.744Z,1021.03
2018-12-30T01:57:51.686Z,1021.04
2018-12-30T01:58:51.757Z,1021.16
2018-12-30T01:59:51.697Z,1021.15
2018-12-30T02:00:51.667Z,1021.13
2018-12-30T02:01:51.656Z,1021.15
2018-12-30T02:02:51.686Z,1021.16
2018-12-30T02:03:51.617Z,1021.25
2018-12-30T02:04:52.643Z,1021.20
2018-12-30T02:05:51.601Z,1021.20
2018-12-30T02:06:51.617Z,1021.23
2018-12-30T02:07:51.573Z,1021.19
2018-12-30T02:08:51.617Z,1021.27
2018-12-30T02:09:51.572Z,1021.27
2018-12-30T02:10:51.631Z,1021.35
2018-12-30T02:11:51.533Z,1021.33
2018-12-30T02:12:52.043Z,1021.33
2018-12-30T02:13:51.510Z,1021.41
2018-12-30T02:14:51.678Z,1021.49
2018-12-30T02:15:51.487Z,1021.36
2018-12-30T02:16:53.557Z,1021.44
2018-12-30T02:17:51.484Z,1021.40
2018-12-30T02:18:51.481Z,1021.44
2018-12-30T02:19:51.469Z,1021.52
2018-12-30T02:20:52.534Z,1021.55
2018-12-30T02:21:51.422Z,1021.50
2018-12-30T02:22:51.545Z,1021.45
2018-12-30T02:23:51.400Z,1021.44
2018-12-30T02:24:51.446Z,1021.42
2018-12-30T02:25:51.386Z,1021.56
2018-12-30T02:26:51.429Z,1021.47
2018-12-30T02:27:51.369Z,1021.50
2018-12-30T02:28:52.364Z,1021.46
2018-12-30T02:29:51.363Z,1021.56
2018-12-30T02:30:51.381Z,1021.56
2018-12-30T02:31:51.321Z,1021.61
2018-12-30T02:32:51.367Z,1021.63
2018-12-30T02:33:51.291Z,1021.65
2018-12-30T02:34:51.381Z,1021.68
2018-12-30T02:35:51.285Z,1021.70
2018-12-30T02:36:51.293Z,1021.73
2018-12-30T02:37:51.253Z,1021.66
2018-12-30T02:38:51.318Z,1021.72
2018-12-30T02:39:51.225Z,1021.69
2018-12-30T02:40:51.251Z,1021.78
2018-12-30T02:41:51.203Z,1021.81
2018-12-30T02:42:51.233Z,1021.77
2018-12-30T02:43:51.193Z,1021.87
2018-12-30T02:44:51.250Z,1021.89
2018-12-30T02:45:51.178Z,1021.89
2018-12-30T02:46:51.262Z,1021.88
2018-12-30T02:47:51.138Z,1021.99
2018-12-30T02:48:51.170Z,1021.99
2018-12-30T02:49:51.126Z,1021.98
2018-12-30T02:50:51.216Z,1022.07
2018-12-30T02:51:51.104Z,1021.92
2018-12-30T02:52:51.100Z,1021.97
2018-12-30T02:53:51.075Z,1021.97
2018-12-30T02:54:51.111Z,1022.02
2018-12-30T02:55:51.069Z,1022.05
2018-12-30T02:56:51.150Z,1022.08
2018-12-30T02:57:51.031Z,1021.95
2018-12-30T02:58:51.058Z,1022.00
2018-12-30T02:59:51.010Z,1022.07
2018-12-30T03:00:51.098Z,1022.11
2018-12-30T03:01:50.989Z,1022.18
2018-12-30T03:02:51.077Z,1022.16
2018-12-30T03:03:50.976Z,1022.24
2018-12-30T03:04:50.988Z,1022.36
2018-12-30T03:05:50.968Z,1022.34
2018-12-30T03:07:21.013Z,1022.22
2018-12-30T03:07:50.929Z,1022.27
2018-12-30T03:08:50.915Z,1022.23
2018-12-30T03:09:51.962Z,1022.20
2018-12-30T03:10:50.908Z,1022.09
2018-12-30T03:11:50.930Z,1022.07
2018-12-30T03:12:50.870Z,1022.17
2018-12-30T03:13:50.953Z,1022.18
2018-12-30T03:14:50.869Z,1022.15
2018-12-30T03:15:50.981Z,1022.13
2018-12-30T03:16:50.827Z,1022.19
2018-12-30T03:17:50.880Z,1022.14
2018-12-30T03:18:50.845Z,1022.25
2018-12-30T03:19:50.878Z,1022.17
2018-12-30T03:20:50.807Z,1022.32
2018-12-30T03:21:59.019Z,1022.38
2018-12-30T03:22:51.760Z,1022.39
2018-12-30T03:23:50.825Z,1022.41
2018-12-30T03:24:50.760Z,1022.39
2018-12-30T03:25:51.778Z,1022.36
2018-12-30T03:26:50.746Z,1022.32
2018-12-30T03:27:50.748Z,1022.30
2018-12-30T03:28:50.803Z,1022.34
2018-12-30T03:29:50.805Z,1022.36
2018-12-30T03:30:50.711Z,1022.43
2018-12-30T03:31:50.779Z,1022.45
2018-12-30T03:32:50.674Z,1022.45
2018-12-30T03:33:50.707Z,1022.36
2018-12-30T03:34:50.634Z,1022.39
2018-12-30T03:35:50.753Z,1022.53
2018-12-30T03:36:50.622Z,1022.50
2018-12-30T03:37:50.748Z,1022.52
2018-12-30T03:38:50.605Z,1022.52
2018-12-30T03:39:50.615Z,1022.52
2018-12-30T03:40:50.616Z,1022.61
2018-12-30T03:41:50.629Z,1022.57
2018-12-30T03:42:50.551Z,1022.65
2018-12-30T03:43:50.639Z,1022.69
2018-12-30T03:44:50.524Z,1022.65
2018-12-30T03:45:50.615Z,1022.70
2018-12-30T03:46:50.528Z,1022.65
2018-12-30T03:47:50.565Z,1022.57
2018-12-30T03:48:50.481Z,1022.69
2018-12-30T03:49:50.580Z,1022.73
2018-12-30T03:50:50.504Z,1022.76
2018-12-30T03:52:08.478Z,1022.68
2018-12-30T03:52:50.440Z,1022.72
2018-12-30T03:54:07.497Z,1022.68
2018-12-30T03:54:50.475Z,1022.71
2018-12-30T03:55:50.435Z,1022.71
2018-12-30T03:56:50.393Z,1022.68
2018-12-30T03:57:50.434Z,1022.79
2018-12-30T03:58:50.395Z,1022.75
2018-12-30T03:59:50.470Z,1022.60
2018-12-30T04:00:50.429Z,1022.72
2018-12-30T04:01:50.463Z,1022.74
2018-12-30T04:02:50.334Z,1022.80
2018-12-30T04:03:50.369Z,1022.78
2018-12-30T04:04:50.378Z,1022.77
2018-12-30T04:05:50.389Z,1022.85
2018-12-30T04:06:50.339Z,1022.80
2018-12-30T04:07:50.395Z,1022.88
2018-12-30T04:08:50.288Z,1022.89
2018-12-30T04:09:50.320Z,1022.91
2018-12-30T04:10:50.323Z,1022.83
2018-12-30T04:11:50.377Z,1022.92
2018-12-30T04:12:50.223Z,1022.84
2018-12-30T04:13:50.229Z,1022.96
2018-12-30T04:14:50.205Z,1022.96
2018-12-30T04:15:50.268Z,1022.93
2018-12-30T04:16:50.208Z,1022.99
2018-12-30T04:17:50.273Z,1023.00
2018-12-30T04:18:50.165Z,1023.00
2018-12-30T04:19:50.178Z,1022.95
2018-12-30T04:20:50.153Z,1023.07
2018-12-30T04:21:51.350Z,1023.01
2018-12-30T04:22:50.115Z,1023.02
2018-12-30T04:23:50.206Z,1022.98
2018-12-30T04:24:50.110Z,1022.96
2018-12-30T04:25:50.103Z,1023.06
2018-12-30T04:26:50.135Z,1023.12
2018-12-30T04:27:50.118Z,1023.10
2018-12-30T04:28:50.052Z,1023.11
2018-12-30T04:29:50.147Z,1023.12
2018-12-30T04:30:50.053Z,1023.13
2018-12-30T04:31:50.079Z,1023.11
2018-12-30T04:32:50.044Z,1023.19
2018-12-30T04:33:50.067Z,1023.27
2018-12-30T04:34:49.982Z,1023.33
2018-12-30T04:35:50.090Z,1023.30
2018-12-30T04:36:50.134Z,1023.33
2018-12-30T04:37:56.970Z,1023.41
2018-12-30T04:38:50.099Z,1023.37
2018-12-30T04:39:58.083Z,1023.42
2018-12-30T04:40:49.961Z,1023.36
2018-12-30T04:41:51.023Z,1023.36
2018-12-30T04:42:49.904Z,1023.28
2018-12-30T04:43:49.934Z,1023.37
2018-12-30T04:44:49.871Z,1023.37
2018-12-30T04:45:49.978Z,1023.38
2018-12-30T04:46:49.901Z,1023.47
2018-12-30T04:47:49.960Z,1023.48
2018-12-30T04:48:49.850Z,1023.54
2018-12-30T04:49:49.859Z,1023.59
2018-12-30T04:50:49.808Z,1023.63
2018-12-30T04:51:49.905Z,1023.64
2018-12-30T04:52:49.830Z,1023.68
2018-12-30T04:53:50.820Z,1023.67
2018-12-30T04:54:49.778Z,1023.71
2018-12-30T04:55:49.812Z,1023.73
2018-12-30T04:56:49.804Z,1023.79
2018-12-30T04:57:49.862Z,1023.76
2018-12-30T04:58:49.736Z,1023.75
2018-12-30T04:59:49.832Z,1023.70
2018-12-30T05:00:49.734Z,1023.73
2018-12-30T05:01:49.769Z,1023.74
2018-12-30T05:02:49.685Z,1023.78
2018-12-30T05:03:49.747Z,1023.79
2018-12-30T05:04:49.701Z,1023.68
2018-12-30T05:05:49.684Z,1023.76
2018-12-30T05:06:49.682Z,1023.83
2018-12-30T05:07:49.675Z,1023.71
2018-12-30T05:08:49.676Z,1023.69
2018-12-30T05:09:50.725Z,1023.70
2018-12-30T05:10:49.605Z,1023.76
2018-12-30T05:11:49.662Z,1023.84
2018-12-30T05:12:49.637Z,1023.78
2018-12-30T05:13:51.765Z,1023.80
2018-12-30T05:14:49.594Z,1023.78
2018-12-30T05:15:49.623Z,1023.76
2018-12-30T05:16:49.556Z,1023.78
2018-12-30T05:17:49.535Z,1023.82
2018-12-30T05:18:49.551Z,1023.81
2018-12-30T05:19:49.556Z,1023.77
2018-12-30T05:20:49.490Z,1023.82
2018-12-30T05:21:49.635Z,1023.93
2018-12-30T05:22:49.472Z,1023.91
2018-12-30T05:23:56.440Z,1023.99
2018-12-30T05:24:49.441Z,1023.90
2018-12-30T05:26:04.442Z,1023.97
2018-12-30T05:26:49.436Z,1023.98
2018-12-30T05:27:50.470Z,1024.04
2018-12-30T05:28:49.400Z,1023.99
2018-12-30T05:29:49.419Z,1024.02
2018-12-30T05:30:49.387Z,1024.11
2018-12-30T05:31:49.422Z,1024.10
2018-12-30T05:32:49.374Z,1024.13
2018-12-30T05:33:50.366Z,1024.09
2018-12-30T05:34:49.337Z,1024.16
2018-12-30T05:35:51.220Z,1024.16
2018-12-30T05:36:49.303Z,1024.21
2018-12-30T05:37:49.414Z,1024.20
2018-12-30T05:38:49.293Z,1024.22
2018-12-30T05:39:49.384Z,1024.21
2018-12-30T05:40:49.267Z,1024.23
2018-12-30T05:41:49.298Z,1024.17
2018-12-30T05:42:49.258Z,1024.22
2018-12-30T05:43:49.310Z,1024.23
2018-12-30T05:44:49.235Z,1024.21
2018-12-30T05:45:49.320Z,1024.32
2018-12-30T05:46:49.210Z,1024.27
2018-12-30T05:47:49.252Z,1024.26
2018-12-30T05:48:49.191Z,1024.26
2018-12-30T05:49:49.241Z,1024.35
2018-12-30T05:50:49.153Z,1024.24
2018-12-30T05:51:49.257Z,1024.21
2018-12-30T05:52:49.153Z,1024.29
2018-12-30T05:53:49.170Z,1024.32
2018-12-30T05:54:49.120Z,1024.31
2018-12-30T05:55:50.223Z,1024.33
2018-12-30T05:56:49.122Z,1024.36
2018-12-30T05:57:49.116Z,1024.41
2018-12-30T05:58:49.075Z,1024.48
2018-12-30T05:59:49.105Z,1024.49
2018-12-30T06:00:49.054Z,1024.51
2018-12-30T06:01:49.162Z,1024.47
2018-12-30T06:02:49.051Z,1024.47
2018-12-30T06:03:49.029Z,1024.53
2018-12-30T06:04:49.004Z,1024.51
2018-12-30T06:05:49.044Z,1024.44
2018-12-30T06:06:48.979Z,1024.61
2018-12-30T06:07:49.099Z,1024.60
2018-12-30T06:08:48.966Z,1024.57
2018-12-30T06:09:55.928Z,1024.61
2018-12-30T06:10:48.937Z,1024.62
2018-12-30T06:12:03.937Z,1024.69
2018-12-30T06:12:48.938Z,1024.65
2018-12-30T06:13:49.929Z,1024.65
2018-12-30T06:14:48.895Z,1024.64
2018-12-30T06:15:48.911Z,1024.74
2018-12-30T06:16:48.874Z,1024.72
2018-12-30T06:17:48.966Z,1024.71
2018-12-30T06:18:48.849Z,1024.70
2018-12-30T06:19:49.873Z,1024.77
2018-12-30T06:20:48.830Z,1024.79
2018-12-30T06:21:48.852Z,1024.81
2018-12-30T06:22:49.677Z,1024.82
2018-12-30T06:23:48.871Z,1024.81
2018-12-30T06:24:48.787Z,1024.90
2018-12-30T06:25:48.884Z,1024.92
2018-12-30T06:26:48.758Z,1024.90
2018-12-30T06:27:48.818Z,1024.89
2018-12-30T06:28:48.741Z,1024.88
2018-12-30T06:29:48.794Z,1024.89
2018-12-30T06:30:48.718Z,1024.94
2018-12-30T06:31:48.815Z,1024.96
2018-12-30T06:32:50.204Z,1024.89
2018-12-30T06:33:48.737Z,1024.94
2018-12-30T06:34:48.697Z,1024.91
2018-12-30T06:35:48.745Z,1024.97
2018-12-30T06:36:48.653Z,1024.98
2018-12-30T06:37:48.787Z,1024.97
2018-12-30T06:38:48.656Z,1024.96
2018-12-30T06:39:48.693Z,1024.92
2018-12-30T06:40:48.609Z,1025.02
2018-12-30T06:41:48.681Z,1025.05
2018-12-30T06:42:48.610Z,1025.07
2018-12-30T06:43:48.631Z,1024.98
2018-12-30T06:44:48.581Z,1024.96
2018-12-30T06:45:50.663Z,1025.05
2018-12-30T06:46:48.565Z,1024.97
2018-12-30T06:47:48.625Z,1024.99
2018-12-30T06:48:48.548Z,1025.04
2018-12-30T06:49:48.544Z,1025.00
2018-12-30T06:50:48.501Z,1025.05
2018-12-30T06:51:48.558Z,1025.03
2018-12-30T06:52:48.483Z,1025.04
2018-12-30T06:53:48.615Z,1025.04
2018-12-30T06:54:48.460Z,1025.01
2018-12-30T06:55:56.475Z,1025.05
2018-12-30T06:56:48.437Z,1025.05
2018-12-30T06:57:49.514Z,1025.09
2018-12-30T06:58:48.456Z,1025.00
2018-12-30T06:59:50.453Z,1025.02
2018-12-30T07:00:48.430Z,1025.04
2018-12-30T07:01:48.428Z,1025.01
2018-12-30T07:02:48.406Z,1025.02
2018-12-30T07:03:48.455Z,1025.01
2018-12-30T07:04:48.351Z,1025.05
2018-12-30T07:05:48.438Z,1025.09
2018-12-30T07:06:48.331Z,1025.13
2018-12-30T07:07:48.380Z,1025.11
2018-12-30T07:08:48.360Z,1025.12
2018-12-30T07:09:48.363Z,1025.13
2018-12-30T07:10:48.284Z,1025.11
2018-12-30T07:11:48.417Z,1025.14
2018-12-30T07:12:48.268Z,1025.12
2018-12-30T07:13:48.330Z,1025.09
2018-12-30T07:14:48.247Z,1025.07
2018-12-30T07:15:48.301Z,1025.10
2018-12-30T07:16:48.221Z,1025.14
2018-12-30T07:17:48.309Z,1025.21
2018-12-30T07:18:48.221Z,1025.21
2018-12-30T07:19:48.227Z,1025.28
2018-12-30T07:20:48.179Z,1025.34
2018-12-30T07:21:48.244Z,1025.33
2018-12-30T07:22:48.244Z,1025.35
2018-12-30T07:23:48.180Z,1025.34
2018-12-30T07:24:48.161Z,1025.39
2018-12-30T07:25:48.168Z,1025.41
2018-12-30T07:26:48.115Z,1025.46
2018-12-30T07:27:48.173Z,1025.43
2018-12-30T07:28:48.110Z,1025.50
2018-12-30T07:29:48.240Z,1025.53
2018-12-30T07:30:48.096Z,1025.57
2018-12-30T07:31:48.099Z,1025.50
2018-12-30T07:32:48.045Z,1025.46
2018-12-30T07:33:48.156Z,1025.46
2018-12-30T07:34:48.028Z,1025.55
2018-12-30T07:35:48.026Z,1025.64
2018-12-30T07:36:47.997Z,1025.59
2018-12-30T07:37:48.038Z,1025.54
2018-12-30T07:38:48.011Z,1025.55
2018-12-30T07:39:48.075Z,1025.56
2018-12-30T07:40:48.004Z,1025.49
2018-12-30T07:41:47.990Z,1025.49
2018-12-30T07:42:47.959Z,1025.44
2018-12-30T07:43:48.009Z,1025.49
2018-12-30T07:44:47.918Z,1025.53
2018-12-30T07:45:49.021Z,1025.55
2018-12-30T07:46:47.888Z,1025.58
2018-12-30T07:47:47.918Z,1025.54
2018-12-30T07:48:47.909Z,1025.48
2018-12-30T07:49:48.953Z,1025.48
2018-12-30T07:50:47.850Z,1025.49
2018-12-30T07:51:48.001Z,1025.47
2018-12-30T07:52:47.854Z,1025.42
2018-12-30T07:53:47.876Z,1025.44
2018-12-30T07:54:47.804Z,1025.47
2018-12-30T07:55:47.894Z,1025.47
2018-12-30T07:56:47.787Z,1025.48
2018-12-30T07:57:47.880Z,1025.48
2018-12-30T07:58:47.800Z,1025.47
2018-12-30T07:59:47.817Z,1025.44
2018-12-30T08:00:47.751Z,1025.44
2018-12-30T08:01:47.790Z,1025.47
2018-12-30T08:02:47.729Z,1025.47
2018-12-30T08:03:47.734Z,1025.52
2018-12-30T08:04:47.716Z,1025.46
2018-12-30T08:05:47.731Z,1025.52
2018-12-30T08:06:47.673Z,1025.59
2018-12-30T08:07:47.755Z,1025.50
2018-12-30T08:08:47.749Z,1025.52
2018-12-30T08:09:47.749Z,1025.52
2018-12-30T08:10:47.683Z,1025.48
2018-12-30T08:11:47.659Z,1025.54
2018-12-30T08:12:47.621Z,1025.61
2018-12-30T08:13:47.697Z,1025.59
2018-12-30T08:14:47.617Z,1025.54
2018-12-30T08:15:49.046Z,1025.57
2018-12-30T08:16:47.581Z,1025.59
2018-12-30T08:17:48.645Z,1025.56
2018-12-30T08:18:47.543Z,1025.59
2018-12-30T08:19:48.585Z,1025.61
2018-12-30T08:20:47.537Z,1025.67
2018-12-30T08:21:47.622Z,1025.66
2018-12-30T08:22:47.554Z,1025.71
2018-12-30T08:23:47.589Z,1025.66
2018-12-30T08:24:47.496Z,1025.63
2018-12-30T08:25:47.565Z,1025.65
2018-12-30T08:26:47.466Z,1025.62
2018-12-30T08:28:02.533Z,1025.63
2018-12-30T08:28:47.449Z,1025.60
2018-12-30T08:29:54.526Z,1025.65
2018-12-30T08:30:47.412Z,1025.63
2018-12-30T08:31:49.450Z,1025.59
2018-12-30T08:32:47.418Z,1025.63
2018-12-30T08:33:47.432Z,1025.60
2018-12-30T08:34:47.432Z,1025.64
2018-12-30T08:35:47.416Z,1025.65
2018-12-30T08:36:47.354Z,1025.60
2018-12-30T08:37:47.427Z,1025.66
2018-12-30T08:38:47.323Z,1025.59
2018-12-30T08:39:47.363Z,1025.68
2018-12-30T08:40:47.303Z,1025.63
2018-12-30T08:41:47.354Z,1025.64
2018-12-30T08:42:47.281Z,1025.72
2018-12-30T08:43:47.363Z,1025.72
2018-12-30T08:44:47.290Z,1025.80
2018-12-30T08:45:47.272Z,1025.72
2018-12-30T08:46:47.282Z,1025.79
2018-12-30T08:47:47.283Z,1025.65
2018-12-30T08:48:47.209Z,1025.61
2018-12-30T08:49:47.326Z,1025.48
2018-12-30T08:50:47.189Z,1025.50
2018-12-30T08:51:47.214Z,1025.56
2018-12-30T08:52:47.164Z,1025.53
2018-12-30T08:53:47.225Z,1025.41
2018-12-30T08:54:47.174Z,1025.49
2018-12-30T08:55:47.252Z,1025.52
2018-12-30T08:56:47.124Z,1025.54
2018-12-30T08:57:47.150Z,1025.54
2018-12-30T08:58:47.104Z,1025.51
2018-12-30T08:59:47.610Z,1025.57
2018-12-30T09:00:47.080Z,1025.56
2018-12-30T09:01:47.184Z,1025.52
2018-12-30T09:02:47.085Z,1025.54
2018-12-30T09:03:47.094Z,1025.51
2018-12-30T09:04:47.050Z,1025.56
2018-12-30T09:05:47.111Z,1025.56
2018-12-30T09:06:47.032Z,1025.59
2018-12-30T09:07:47.127Z,1025.58
2018-12-30T09:08:47.021Z,1025.62
2018-12-30T09:09:47.056Z,1025.53
2018-12-30T09:10:46.971Z,1025.49
2018-12-30T09:11:47.049Z,1025.61
2018-12-30T09:12:46.980Z,1025.61
2018-12-30T09:13:54.958Z,1025.56
2018-12-30T09:14:46.975Z,1025.61
2018-12-30T09:15:54.456Z,1025.54
2018-12-30T09:16:46.917Z,1025.55
2018-12-30T09:17:48.981Z,1025.51
2018-12-30T09:18:46.887Z,1025.52
2018-12-30T09:19:48.391Z,1025.50
2018-12-30T09:20:47.203Z,1025.53
2018-12-30T09:21:47.045Z,1025.57
2018-12-30T09:22:46.900Z,1025.59
2018-12-30T09:23:46.932Z,1025.59
2018-12-30T09:24:46.878Z,1025.60
2018-12-30T09:25:46.889Z,1025.57
2018-12-30T09:26:46.828Z,1025.61
2018-12-30T09:27:46.857Z,1025.62
2018-12-30T09:28:46.784Z,1025.65
2018-12-30T09:29:46.899Z,1025.64
2018-12-30T09:30:46.780Z,1025.60
2018-12-30T09:31:46.769Z,1025.59
2018-12-30T09:32:46.746Z,1025.64
2018-12-30T09:33:46.788Z,1025.68
2018-12-30T09:34:46.711Z,1025.65
2018-12-30T09:35:47.746Z,1025.68
2018-12-30T09:36:46.692Z,1025.68
2018-12-30T09:37:46.718Z,1025.75
2018-12-30T09:38:46.681Z,1025.76
2018-12-30T09:39:46.738Z,1025.85
2018-12-30T09:40:46.682Z,1025.90
2018-12-30T09:41:46.743Z,1025.85
2018-12-30T09:42:46.624Z,1025.92
2018-12-30T09:43:46.652Z,1025.92
2018-12-30T09:44:46.655Z,1025.92
2018-12-30T09:45:46.694Z,1025.91
2018-12-30T09:46:46.581Z,1025.83
2018-12-30T09:47:46.675Z,1025.91
2018-12-30T09:48:46.571Z,1025.90
2018-12-30T09:49:46.589Z,1025.95
2018-12-30T09:50:46.565Z,1025.96
2018-12-30T09:51:46.601Z,1025.92
2018-12-30T09:52:46.535Z,1025.91
2018-12-30T09:53:46.613Z,1025.91
2018-12-30T09:54:46.505Z,1025.88
2018-12-30T09:55:46.550Z,1025.88
2018-12-30T09:56:46.477Z,1025.89
2018-12-30T09:57:46.538Z,1025.88
2018-12-30T09:58:46.532Z,1025.93
2018-12-30T09:59:46.551Z,1025.93
2018-12-30T10:00:47.565Z,1025.86
2018-12-30T10:01:48.517Z,1025.92
2018-12-30T10:02:46.409Z,1025.88
2018-12-30T10:03:48.454Z,1025.90
2018-12-30T10:04:46.430Z,1025.81
2018-12-30T10:05:46.428Z,1025.79
2018-12-30T10:06:46.364Z,1025.81
2018-12-30T10:07:46.399Z,1025.84
2018-12-30T10:08:46.366Z,1025.76
2018-12-30T10:09:46.416Z,1025.79
2018-12-30T10:10:46.369Z,1025.72
2018-12-30T10:11:46.330Z,1025.75
2018-12-30T10:12:46.307Z,1025.68
2018-12-30T10:13:46.340Z,1025.82
2018-12-30T10:14:46.295Z,1025.81
2018-12-30T10:15:46.383Z,1025.86
2018-12-30T10:16:46.266Z,1025.92
2018-12-30T10:17:46.265Z,1026.14
2018-12-30T10:18:46.249Z,1026.03
2018-12-30T10:19:46.277Z,1025.70
2018-12-30T10:20:46.224Z,1025.69
2018-12-30T10:21:46.289Z,1025.76
2018-12-30T10:22:46.191Z,1025.67
2018-12-30T10:23:52.774Z,1025.67
2018-12-30T10:24:47.170Z,1025.79
2018-12-30T10:25:46.256Z,1025.82
2018-12-30T10:26:46.157Z,1026.13
2018-12-30T10:27:46.237Z,1025.95
2018-12-30T10:28:46.151Z,1025.82
2018-12-30T10:29:46.147Z,1025.66
2018-12-30T10:30:46.126Z,1025.70
2018-12-30T10:31:46.157Z,1025.69
2018-12-30T10:32:46.083Z,1025.70
2018-12-30T10:33:46.196Z,1025.97
2018-12-30T10:34:46.111Z,1026.02
2018-12-30T10:35:46.167Z,1025.99
2018-12-30T10:36:46.090Z,1025.66
2018-12-30T10:37:46.138Z,1025.95
2018-12-30T10:38:46.013Z,1025.98
2018-12-30T10:39:46.144Z,1025.89
2018-12-30T10:40:46.014Z,1025.77
2018-12-30T10:41:46.031Z,1025.58
2018-12-30T10:42:45.971Z,1026.01
2018-12-30T10:43:47.059Z,1025.92
2018-12-30T10:44:45.992Z,1025.75
2018-12-30T10:45:45.990Z,1025.47
2018-12-30T10:46:46.044Z,1025.59
2018-12-30T10:47:45.975Z,1025.58
2018-12-30T10:48:45.906Z,1025.93
2018-12-30T10:49:47.955Z,1025.79
2018-12-30T10:50:46.016Z,1025.95
2018-12-30T10:51:45.883Z,1025.96
2018-12-30T10:52:45.864Z,1025.88
2018-12-30T10:53:45.903Z,1025.96
2018-12-30T10:54:45.842Z,1025.91
2018-12-30T10:55:45.939Z,1025.91
2018-12-30T10:56:45.881Z,1025.93
2018-12-30T10:57:45.824Z,1025.87
2018-12-30T10:58:45.800Z,1025.91
2018-12-30T10:59:45.888Z,1026.00
2018-12-30T11:00:45.792Z,1025.92
2018-12-30T11:01:45.886Z,1025.73
2018-12-30T11:02:45.752Z,1025.68
2018-12-30T11:03:45.808Z,1025.67
2018-12-30T11:04:45.740Z,1025.78
2018-12-30T11:05:45.774Z,1025.84
2018-12-30T11:06:45.724Z,1025.80
2018-12-30T11:07:45.798Z,1025.81
2018-12-30T11:08:45.727Z,1025.75
2018-12-30T11:09:45.710Z,1025.81
2018-12-30T11:10:45.694Z,1025.53
2018-12-30T11:11:45.788Z,1025.70
2018-12-30T11:12:45.700Z,1025.79
2018-12-30T11:13:45.738Z,1025.70
2018-12-30T11:14:45.619Z,1025.78
2018-12-30T11:15:45.644Z,1025.89
2018-12-30T11:16:45.618Z,1025.80
2018-12-30T11:17:45.686Z,1025.79
2018-12-30T11:18:45.578Z,1025.78
2018-12-30T11:19:45.799Z,1025.76
2018-12-30T11:20:45.553Z,1025.83
2018-12-30T11:21:45.621Z,1025.69
2018-12-30T11:22:45.532Z,1025.81
2018-12-30T11:23:45.618Z,1025.80
2018-12-30T11:24:45.533Z,1025.57
2018-12-30T11:25:47.556Z,1025.81
2018-12-30T11:26:45.572Z,1025.80
2018-12-30T11:27:45.587Z,1026.00
2018-12-30T11:28:45.514Z,1025.71
2018-12-30T11:29:46.583Z,1025.66
2018-12-30T11:30:45.444Z,1025.75
2018-12-30T11:31:45.557Z,1025.62
2018-12-30T11:32:45.432Z,1025.80
2018-12-30T11:33:45.466Z,1025.97
2018-12-30T11:34:45.399Z,1025.82
2018-12-30T11:35:45.475Z,1025.73
2018-12-30T11:36:45.409Z,1025.90
2018-12-30T11:37:45.392Z,1025.67
2018-12-30T11:38:45.359Z,1025.65
2018-12-30T11:39:45.399Z,1025.67
2018-12-30T11:40:45.337Z,1025.70
2018-12-30T11:41:45.457Z,1025.68
2018-12-30T11:42:45.395Z,1025.69
2018-12-30T11:43:45.319Z,1025.64
2018-12-30T11:44:45.290Z,1025.63
2018-12-30T11:45:45.336Z,1025.67
2018-12-30T11:46:45.281Z,1025.75
2018-12-30T11:47:45.478Z,1025.71
2018-12-30T11:48:45.274Z,1025.72
2018-12-30T11:49:45.299Z,1025.75
2018-12-30T11:50:45.257Z,1025.70
2018-12-30T11:51:45.303Z,1025.79
2018-12-30T11:52:45.244Z,1025.75
2018-12-30T11:53:45.284Z,1025.75
2018-12-30T11:54:45.219Z,1025.71
2018-12-30T11:55:45.198Z,1025.70
2018-12-30T11:56:45.192Z,1025.82
2018-12-30T11:57:45.207Z,1025.70
2018-12-30T11:58:45.145Z,1025.74
2018-12-30T11:59:45.229Z,1025.75
2018-12-30T12:00:45.109Z,1025.80
2018-12-30T12:01:45.164Z,1025.85
2018-12-30T12:02:45.090Z,1025.84
2018-12-30T12:03:45.188Z,1025.84
2018-12-30T12:04:45.070Z,1025.84
2018-12-30T12:05:45.232Z,1025.85
2018-12-30T12:06:45.112Z,1025.80